Terminal Aerodrome Forecast
Issued by NWS Mt. Holly, NJ

Current Version | Previous Version | Text Only | Print | Product List | Glossary On
Versions: 1 2 3 4 5 6 7 8 9 10 11 12 13 14 15 16 17 18 19 20 21
000
FTUS41 KPHI 032321
TAFPHL
TAF
KPHL 032321Z 0400/0506 21008KT P6SM FEW050
     FM040300 23006KT P6SM BKN080
     FM040800 24006KT P6SM SCT080
     FM041400 25010G18KT P6SM SCT050
     FM050100 25006KT P6SM SCT250=

USA.gov is the U.S. government's official web portal to all federal, state and local government web resources and services.